METAR UND TAF INFORMATION

METAR FOR LGSA
ADDS - METARS form results

(0549 UTC 26 June 2022)
Data provider http://aviationweather.gov/metar/data/
 
METAR text: LGSA 260520Z 31006KT CAVOK 28/19 Q1011
Conditions at: LGSA (SOUDA/KHANIA (AF, GR) observed 0520 UTC 26 June 2022
Temperature: 28.0°C (82°F)
Dewpoint: 19.0°C (66°F) [RH = 58%]
Pressure (altimeter): 29.85 inches Hg (1011.0 mb)
Winds: from the NW (310 degrees) at 7 MPH (6 knots; 3.1 m/s)
Visibility: 6 or more miles (10+ km)
Ceiling: ceiling and visibility are OK
Clouds: unknown
Weather: no significant weather observed at this time

METAR text: LGSA 260450Z 29004KT CAVOK 28/20 Q1011
Conditions at: LGSA (SOUDA/KHANIA (AF, GR) observed 0450 UTC 26 June 2022
Temperature: 28.0°C (82°F)
Dewpoint: 20.0°C (68°F) [RH = 62%]
Pressure (altimeter): 29.85 inches Hg (1011.0 mb)
Winds: from the WNW (290 degrees) at 5 MPH (4 knots; 2.1 m/s)
Visibility: 6 or more miles (10+ km)
Ceiling: ceiling and visibility are OK
Clouds: unknown
Weather: no significant weather observed at this time

Forecast for: LGSA (SOUDA/KHANIA (AF, GR)
Text: TAF LGSA 260500Z 2606/2706 VRB05KT 9999 FEW020
Forecast period: 0600 UTC 26 June 2022 to 0600 UTC 27 June 2022
Forecast type: FROM: standard forecast or significant change
Winds: variable direction winds at 6 MPH (5 knots; 2.6 m/s)
Visibility: 6 or more miles (10+ km)
Ceiling: at least 12,000 feet AGL
Clouds: few clouds at 2000 feet AGL
Weather: no significant weather forecast for this period
Text: TEMPO 2608/2615 36010KT
Forecast period: 0800 to 1500 UTC 26 June 2022
Forecast type: TEMPORARY: The following changes expected for less than half the time period
Winds: from the N (360 degrees) at 12 MPH (10 knots; 5.1 m/s)
Visibility: missing
Ceiling: unknown
Clouds: missing
Weather: no significant weather forecast for this period

 FLUGHAFENKARTE

 RUNWAY INFORMATION
Runway 11 Runway length 10982 ft Runway width 148 ft
Runway elevation 428 ft Runway displaced threshold 0 ft Runway heading 111
Runway 29 Runway length 10982 ft Runway width 148 ft
Runway elevation 490 ft Runway displaced threshold 0 ft Runway heading 291

 AIRPORT FREQUENCIES
Type A/G Name CHANIA RDO Frequency 563.7 MHZ
Type APP Name APP Frequency 118.125 MHZ
Type GND Name GND Frequency 121.7 MHZ
Type MISC Name RANGER BAS Frequency 25.24 MHZ
Type OPS Name BASE OPS Frequency 35.94 MHZ
Type PMSV Name PMSV METRO Frequency 35.94 MHZ
Type POST Name BULL PEN Frequency 27.895 MHZ
Type TWR Name TWR Frequency 121.1 MHZ

 AIRPORT NEAR NAVIGATION AIDS
Type TACAN Name Souda Frequency 111200 KHZ
Type VOR-DME Name Chania Frequency 108600 KHZ
Type NDB Name Chania Frequency 409 KHZ